createdAt,value
2018-08-07T00:00:37.739Z,84.30
2018-08-07T00:03:08.414Z,84.43
2018-08-07T00:05:38.674Z,83.53
2018-08-07T00:08:09.285Z,84.79
2018-08-07T00:10:39.783Z,84.36
2018-08-07T00:13:10.093Z,84.51
2018-08-07T00:15:43.012Z,84.92
2018-08-07T00:18:13.693Z,85.04
2018-08-07T00:21:16.526Z,85.94
2018-08-07T00:23:47.522Z,86.84
2018-08-07T00:26:23.409Z,87.56
2018-08-07T00:28:53.653Z,89.63
2018-08-07T00:31:23.975Z,89.93
2018-08-07T00:33:54.053Z,90.75
2018-08-07T00:36:27.245Z,91.11
2018-08-07T00:38:57.712Z,91.91
2018-08-07T00:41:27.692Z,92.69
2018-08-07T00:43:58.836Z,93.53
2018-08-07T00:46:28.812Z,93.25
2018-08-07T00:48:59.003Z,94.49
2018-08-07T00:51:29.067Z,95.17
2018-08-07T00:53:59.517Z,96.43
2018-08-07T00:56:29.655Z,97.39
2018-08-07T00:59:00.423Z,95.58
2018-08-07T01:01:30.535Z,95.02
2018-08-07T01:04:01.301Z,94.08
2018-08-07T01:06:31.623Z,93.31
2018-08-07T01:09:01.744Z,94.03
2018-08-07T01:11:32.188Z,95.02
2018-08-07T01:14:02.374Z,95.89
2018-08-07T01:16:32.778Z,97.61
2018-08-07T01:19:02.934Z,98.05
2018-08-07T01:21:33.132Z,98.78
2018-08-07T01:24:03.269Z,97.94
2018-08-07T01:26:34.208Z,99.40
2018-08-07T01:29:05.315Z,98.84
2018-08-07T01:31:35.560Z,99.37
2018-08-07T01:34:05.672Z,98.77
2018-08-07T01:36:36.082Z,97.24
2018-08-07T01:39:21.204Z,95.91
2018-08-07T01:41:52.448Z,96.39
2018-08-07T01:44:22.634Z,97.12
2018-08-07T01:46:52.680Z,98.22
2018-08-07T01:49:23.186Z,96.15
2018-08-07T01:51:53.911Z,93.88
2018-08-07T01:54:24.149Z,93.10
2018-08-07T01:56:55.384Z,93.03
2018-08-07T01:59:26.551Z,93.40
2018-08-07T02:01:58.223Z,95.20
2018-08-07T02:04:38.791Z,95.20
2018-08-07T02:07:13.269Z,95.69
2018-08-07T02:09:43.735Z,96.17
2018-08-07T02:12:14.796Z,97.75
2018-08-07T02:14:44.886Z,97.65
2018-08-07T02:17:15.907Z,97.56
2018-08-07T02:22:37.357Z,98.96
2018-08-07T02:25:16.165Z,98.66
2018-08-07T02:27:48.673Z,97.18
2018-08-07T02:30:21.071Z,96.14
2018-08-07T02:32:57.512Z,95.74
2018-08-07T02:35:28.350Z,97.68
2018-08-07T02:37:59.694Z,99.36
2018-08-07T02:40:29.726Z,99.61
2018-08-07T02:42:59.855Z,98.42
2018-08-07T02:45:30.667Z,97.28
2018-08-07T02:48:00.737Z,97.99
2018-08-07T02:50:47.514Z,98.37
2018-08-07T02:53:18.791Z,98.61
2018-08-07T02:55:48.879Z,100.00
2018-08-07T02:58:19.086Z,100.00
2018-08-07T03:00:49.203Z,100.00
2018-08-07T03:03:19.351Z,100.00
2018-08-07T03:05:57.347Z,100.00
2018-08-07T03:08:27.690Z,100.00
2018-08-07T03:10:58.501Z,100.00
2018-08-07T03:13:28.606Z,100.00
2018-08-07T03:15:59.134Z,100.00
2018-08-07T03:18:29.217Z,100.00
2018-08-07T03:20:59.282Z,100.00
2018-08-07T03:23:29.507Z,100.00
2018-08-07T03:25:59.884Z,100.00
2018-08-07T03:28:37.693Z,100.00
2018-08-07T03:31:24.937Z,100.00
2018-08-07T03:33:59.370Z,100.00
2018-08-07T03:36:29.471Z,100.00
2018-08-07T03:38:59.548Z,100.00
2018-08-07T03:41:29.544Z,100.00
2018-08-07T03:43:59.561Z,100.00
2018-08-07T03:46:29.514Z,100.00
2018-08-07T03:48:59.503Z,100.00
2018-08-07T03:51:29.451Z,100.00
2018-08-07T03:54:00.079Z,100.00
2018-08-07T03:56:29.994Z,100.00
2018-08-07T03:58:59.963Z,100.00
2018-08-07T04:01:30.057Z,100.00
2018-08-07T04:04:00.137Z,100.00
2018-08-07T04:06:30.206Z,100.00
2018-08-07T04:09:00.228Z,100.00
2018-08-07T04:11:30.273Z,100.00
2018-08-07T04:14:01.180Z,100.00
2018-08-07T04:16:32.950Z,100.00
2018-08-07T04:19:02.979Z,100.00
2018-08-07T04:21:32.955Z,100.00
2018-08-07T04:24:03.040Z,100.00
2018-08-07T04:26:33.135Z,100.00
2018-08-07T04:29:03.891Z,100.00
2018-08-07T04:31:36.927Z,100.00
2018-08-07T04:34:07.844Z,100.00
2018-08-07T04:36:37.905Z,100.00
2018-08-07T04:39:11.014Z,100.00
2018-08-07T04:41:42.189Z,100.00
2018-08-07T04:44:12.965Z,100.00
2018-08-07T04:46:43.066Z,100.00
2018-08-07T04:49:14.886Z,100.00
2018-08-07T04:51:46.983Z,100.00
2018-08-07T04:54:18.309Z,100.00
2018-08-07T04:56:48.336Z,98.88
2018-08-07T04:59:18.824Z,98.17
2018-08-07T05:01:48.988Z,97.80
2018-08-07T05:04:20.136Z,97.81
2018-08-07T05:06:50.192Z,96.84
2018-08-07T05:09:20.156Z,97.52
2018-08-07T05:11:51.659Z,95.62
2018-08-07T05:14:22.449Z,93.44
2018-08-07T05:16:53.602Z,90.23
2018-08-07T05:19:24.296Z,89.07
2018-08-07T05:21:54.750Z,86.60
2018-08-07T05:24:26.056Z,84.97
2018-08-07T05:26:57.150Z,85.05
2018-08-07T05:29:27.247Z,83.43
2018-08-07T05:31:57.331Z,82.93
2018-08-07T05:34:28.741Z,80.95
2018-08-07T05:36:59.335Z,81.48
2018-08-07T05:39:29.529Z,80.33
2018-08-07T05:42:00.350Z,80.14
2018-08-07T05:44:31.600Z,78.91
2018-08-07T05:47:01.832Z,78.34
2018-08-07T05:49:31.957Z,80.84
2018-08-07T05:52:02.282Z,81.03
2018-08-07T05:54:32.642Z,80.39
2018-08-07T05:57:04.176Z,80.87
2018-08-07T05:59:34.680Z,78.33
2018-08-07T06:02:05.012Z,76.81
2018-08-07T06:04:36.133Z,76.58
2018-08-07T06:07:07.316Z,75.35
2018-08-07T06:09:37.785Z,73.83
2018-08-07T06:12:08.144Z,73.90
2018-08-07T06:14:38.983Z,73.75
2018-08-07T06:17:09.241Z,71.62
2018-08-07T06:19:39.424Z,71.66
2018-08-07T06:22:09.993Z,71.39
2018-08-07T06:24:40.068Z,71.62
2018-08-07T06:27:10.340Z,70.54
2018-08-07T06:29:40.959Z,69.95
2018-08-07T06:32:11.052Z,70.21
2018-08-07T06:34:41.521Z,69.21
2018-08-07T06:37:12.202Z,68.99
2018-08-07T06:39:42.237Z,67.17
2018-08-07T06:42:13.733Z,65.72
2018-08-07T06:44:43.868Z,68.17
2018-08-07T06:47:14.745Z,66.38
2018-08-07T06:49:44.859Z,64.04
2018-08-07T06:52:15.402Z,64.17
2018-08-07T06:54:45.614Z,66.14
2018-08-07T06:57:16.681Z,66.76
2018-08-07T06:59:46.703Z,67.34
2018-08-07T07:02:16.888Z,65.92
2018-08-07T07:04:47.871Z,64.98
2018-08-07T07:07:17.953Z,65.50
2018-08-07T07:09:48.074Z,64.04
2018-08-07T07:12:18.475Z,63.62
2018-08-07T07:14:48.441Z,64.16
2018-08-07T07:17:18.709Z,67.10
2018-08-07T07:19:49.083Z,65.98
2018-08-07T07:22:19.144Z,66.66
2018-08-07T07:24:49.200Z,64.44
2018-08-07T07:31:16.784Z,61.65
2018-08-07T07:33:46.856Z,62.88
2018-08-07T07:36:16.953Z,61.97
2018-08-07T07:38:47.094Z,60.82
2018-08-07T07:41:17.119Z,60.99
2018-08-07T07:43:47.188Z,59.29
2018-08-07T07:46:17.312Z,59.85
2018-08-07T07:48:47.456Z,58.23
2018-08-07T07:51:17.431Z,58.25
2018-08-07T07:53:47.460Z,56.12
2018-08-07T07:56:17.647Z,54.57
2018-08-07T07:58:47.677Z,55.83
2018-08-07T08:01:17.699Z,53.82
2018-08-07T08:03:47.796Z,56.05
2018-08-07T08:06:17.944Z,55.17
2018-08-07T08:08:47.960Z,56.86
2018-08-07T08:11:18.009Z,54.28
2018-08-07T08:13:48.128Z,54.34
2018-08-07T08:16:18.171Z,53.54
2018-08-07T08:18:48.365Z,53.40
2018-08-07T08:21:19.133Z,52.15
2018-08-07T08:23:49.147Z,53.57
2018-08-07T08:26:19.162Z,51.45
2018-08-07T08:28:49.162Z,48.37
2018-08-07T08:31:19.189Z,49.39
2018-08-07T08:33:49.265Z,49.34
2018-08-07T08:36:19.335Z,48.29
2018-08-07T08:38:49.553Z,48.29
2018-08-07T08:41:19.530Z,51.70
2018-08-07T08:43:49.557Z,49.60
2018-08-07T08:46:19.464Z,47.19
2018-08-07T08:48:49.511Z,47.07
2018-08-07T08:51:19.521Z,47.73
2018-08-07T08:53:49.521Z,45.44
2018-08-07T08:56:19.528Z,46.87
2018-08-07T08:58:49.705Z,46.86
2018-08-07T09:01:19.792Z,44.98
2018-08-07T09:03:51.135Z,43.25
2018-08-07T09:06:21.220Z,45.21
2018-08-07T09:08:51.251Z,47.13
2018-08-07T09:11:21.247Z,45.21
2018-08-07T09:13:51.335Z,46.43
2018-08-07T09:16:21.352Z,43.61
2018-08-07T09:18:51.376Z,42.02
2018-08-07T09:21:21.270Z,43.36
2018-08-07T09:23:51.227Z,44.18
2018-08-07T09:26:21.264Z,43.74
2018-08-07T09:28:51.259Z,46.40
2018-08-07T09:31:21.351Z,43.85
2018-08-07T09:33:51.384Z,42.57
2018-08-07T09:36:21.363Z,40.54
2018-08-07T09:38:51.453Z,44.49
2018-08-07T09:41:21.542Z,45.35
2018-08-07T09:43:51.779Z,43.03
2018-08-07T09:46:41.228Z,41.18
2018-08-07T09:57:18.940Z,42.91
2018-08-07T09:59:48.953Z,40.44
2018-08-07T10:02:24.183Z,38.47
2018-08-07T10:04:54.268Z,39.13
2018-08-07T10:07:24.597Z,38.47
2018-08-07T10:09:55.018Z,37.35
2018-08-07T10:12:25.055Z,36.84
2018-08-07T10:14:55.100Z,38.25
2018-08-07T10:17:25.184Z,38.02
2018-08-07T10:19:55.192Z,37.93
2018-08-07T10:22:25.270Z,37.09
2018-08-07T10:24:55.210Z,39.89
2018-08-07T10:27:25.199Z,39.44
2018-08-07T10:29:55.148Z,38.98
2018-08-07T10:32:25.241Z,36.47
2018-08-07T10:34:55.226Z,37.29
2018-08-07T10:37:25.252Z,37.79
2018-08-07T10:39:55.143Z,36.04
2018-08-07T10:42:25.107Z,35.65
2018-08-07T10:44:56.176Z,35.62
2018-08-07T10:47:26.210Z,36.54
2018-08-07T10:49:56.264Z,36.04
2018-08-07T10:52:26.267Z,39.36
2018-08-07T10:54:56.194Z,37.42
2018-08-07T10:57:26.309Z,37.82
2018-08-07T10:59:56.140Z,40.47
2018-08-07T11:02:26.126Z,38.17
2018-08-07T11:04:56.200Z,38.17
2018-08-07T11:07:26.204Z,35.70
2018-08-07T11:09:56.260Z,37.64
2018-08-07T11:12:26.359Z,39.51
2018-08-07T11:14:56.385Z,38.61
2018-08-07T11:17:26.419Z,37.38
2018-08-07T11:19:56.436Z,37.30
2018-08-07T11:22:26.502Z,36.48
2018-08-07T11:24:56.602Z,38.53
2018-08-07T11:27:26.562Z,38.30
2018-08-07T11:29:56.516Z,38.62
2018-08-07T11:32:26.626Z,37.63
2018-08-07T11:34:56.568Z,36.27
2018-08-07T11:37:26.596Z,36.92
2018-08-07T11:39:56.729Z,39.11
2018-08-07T11:42:27.015Z,37.41
2018-08-07T11:44:57.020Z,37.21
2018-08-07T11:47:27.109Z,35.76
2018-08-07T11:49:57.063Z,37.31
2018-08-07T11:52:27.057Z,37.76
2018-08-07T11:54:57.130Z,39.66
2018-08-07T11:57:27.251Z,41.30
2018-08-07T11:59:57.204Z,37.38
2018-08-07T12:14:25.532Z,36.30
2018-08-07T12:16:57.460Z,38.72
2018-08-07T12:19:40.151Z,36.66
2018-08-07T12:32:36.729Z,36.22
2018-08-07T12:35:08.063Z,35.75
2018-08-07T12:37:38.628Z,35.32
2018-08-07T12:40:20.290Z,33.57
2018-08-07T12:42:51.060Z,32.57
2018-08-07T12:45:20.999Z,33.59
2018-08-07T12:47:51.264Z,32.07
2018-08-07T12:50:22.156Z,30.65
2018-08-07T12:52:53.145Z,28.26
2018-08-07T12:55:24.055Z,27.48
2018-08-07T12:57:54.617Z,27.82
2018-08-07T13:00:26.791Z,30.77
2018-08-07T13:02:57.198Z,31.57
2018-08-07T13:05:28.160Z,31.78
2018-08-07T13:07:59.433Z,31.81
2018-08-07T13:10:29.602Z,32.20
2018-08-07T13:12:59.745Z,32.37
2018-08-07T13:15:36.206Z,32.67
2018-08-07T13:18:06.264Z,32.77
2018-08-07T13:20:36.479Z,33.86
2018-08-07T13:23:06.683Z,34.26
2018-08-07T13:25:37.049Z,36.52
2018-08-07T13:28:07.237Z,38.83
2018-08-07T13:30:37.251Z,40.67
2018-08-07T13:33:07.306Z,41.23
2018-08-07T13:35:37.384Z,44.14
2018-08-07T13:38:07.430Z,45.08
2018-08-07T13:40:37.396Z,44.81
2018-08-07T13:43:07.861Z,45.88
2018-08-07T13:45:37.895Z,45.02
2018-08-07T13:48:08.000Z,45.46
2018-08-07T13:50:37.943Z,48.05
2018-08-07T13:53:08.098Z,48.17
2018-08-07T13:55:38.418Z,48.62
2018-08-07T13:58:08.572Z,47.70
2018-08-07T14:00:38.570Z,47.68
2018-08-07T14:03:09.020Z,48.38
2018-08-07T14:05:39.714Z,48.39
2018-08-07T14:08:09.687Z,48.29
2018-08-07T14:10:40.545Z,48.52
2018-08-07T14:13:10.863Z,49.49
2018-08-07T14:15:40.837Z,49.03
2018-08-07T14:18:10.974Z,49.46
2018-08-07T14:20:41.008Z,49.00
2018-08-07T14:23:11.244Z,49.37
2018-08-07T14:25:42.313Z,49.24
2018-08-07T14:28:13.447Z,51.02
2018-08-07T14:30:44.900Z,51.50
2018-08-07T14:33:17.371Z,51.33
2018-08-07T14:35:47.920Z,50.69
2018-08-07T14:38:17.892Z,51.59
2018-08-07T14:40:47.917Z,51.27
2018-08-07T14:43:17.930Z,51.14
2018-08-07T14:45:48.221Z,50.86
2018-08-07T14:48:24.816Z,49.26
2018-08-07T14:51:34.098Z,48.39
2018-08-07T14:54:04.582Z,48.93
2018-08-07T14:56:35.636Z,47.63
2018-08-07T14:59:06.006Z,48.70
2018-08-07T15:01:45.818Z,47.57
2018-08-07T15:04:17.066Z,46.64
2018-08-07T15:06:49.393Z,46.78
2018-08-07T15:09:19.369Z,46.49
2018-08-07T15:11:49.300Z,47.06
2018-08-07T15:14:19.428Z,46.60
2018-08-07T15:16:49.496Z,46.42
2018-08-07T15:19:20.108Z,46.10
2018-08-07T15:21:50.528Z,46.25
2018-08-07T15:24:24.172Z,47.24
2018-08-07T15:26:55.137Z,45.49
2018-08-07T15:29:25.382Z,45.20
2018-08-07T15:31:55.581Z,45.53
2018-08-07T15:34:25.770Z,46.33
2018-08-07T15:36:55.684Z,46.38
2018-08-07T15:42:06.383Z,45.39
2018-08-07T15:44:36.508Z,45.14
2018-08-07T15:47:06.547Z,45.62
2018-08-07T15:49:37.276Z,43.64
2018-08-07T15:52:07.237Z,45.71
2018-08-07T15:54:37.289Z,47.71
2018-08-07T15:57:07.241Z,50.56
2018-08-07T15:59:37.155Z,54.85
2018-08-07T16:02:07.209Z,54.96
2018-08-07T16:04:37.268Z,56.28
2018-08-07T16:07:07.507Z,57.41
2018-08-07T16:09:37.576Z,56.15
2018-08-07T16:12:07.627Z,59.85
2018-08-07T16:14:37.675Z,61.63
2018-08-07T16:17:08.481Z,59.86
2018-08-07T16:19:39.314Z,61.21
2018-08-07T16:22:09.345Z,62.10
2018-08-07T16:24:39.352Z,61.75
2018-08-07T16:27:09.364Z,62.21
2018-08-07T16:29:39.470Z,61.93
2018-08-07T16:32:16.316Z,61.44
2018-08-07T16:34:47.948Z,60.01
2018-08-07T16:37:17.948Z,59.72
2018-08-07T16:39:48.060Z,59.37
2018-08-07T16:42:18.051Z,58.43
2018-08-07T16:44:48.184Z,57.14
2018-08-07T16:47:18.077Z,55.71
2018-08-07T16:49:48.175Z,54.86
2018-08-07T16:52:18.317Z,53.78
2018-08-07T16:54:50.066Z,54.21
2018-08-07T16:57:20.296Z,54.62
2018-08-07T16:59:50.452Z,56.03
2018-08-07T17:02:20.563Z,56.19
2018-08-07T17:04:50.676Z,55.09
2018-08-07T17:07:20.761Z,55.50
2018-08-07T17:09:50.780Z,57.05
2018-08-07T17:12:20.733Z,58.19
2018-08-07T17:14:50.796Z,59.27
2018-08-07T17:17:20.727Z,59.73
2018-08-07T17:19:51.140Z,61.35
2018-08-07T17:22:22.286Z,61.93
2018-08-07T17:24:54.259Z,61.71
2018-08-07T17:27:24.668Z,61.22
2018-08-07T17:29:55.952Z,62.03
2018-08-07T17:32:32.414Z,62.34
2018-08-07T17:35:02.876Z,61.00
2018-08-07T17:37:33.163Z,61.10
2018-08-07T17:40:03.479Z,60.48
2018-08-07T17:42:35.599Z,61.36
2018-08-07T17:45:06.554Z,61.27
2018-08-07T17:47:36.568Z,60.49
2018-08-07T17:50:08.232Z,60.97
2018-08-07T17:52:38.256Z,60.25
2018-08-07T17:55:09.467Z,58.58
2018-08-07T17:57:40.063Z,58.65
2018-08-07T18:00:27.198Z,61.23
2018-08-07T18:02:57.283Z,59.54
2018-08-07T18:05:27.345Z,59.51
2018-08-07T18:08:04.188Z,59.10
2018-08-07T18:10:37.428Z,59.10
2018-08-07T18:13:07.530Z,60.16
2018-08-07T18:15:37.650Z,60.66
2018-08-07T18:36:07.160Z,63.91
2018-08-07T18:39:15.585Z,64.43
2018-08-07T18:41:44.577Z,65.23
2018-08-07T18:44:14.068Z,66.09
2018-08-07T18:46:43.134Z,66.95
2018-08-07T18:49:12.591Z,67.17
2018-08-07T18:51:41.711Z,67.10
2018-08-07T18:54:10.805Z,68.45
2018-08-07T18:56:39.788Z,67.20
2018-08-07T18:59:08.905Z,68.34
2018-08-07T19:01:38.059Z,69.01
2018-08-07T19:04:07.226Z,68.98
2018-08-07T19:06:36.564Z,69.18
2018-08-07T19:12:54.777Z,69.11
2018-08-07T19:18:35.534Z,72.21
2018-08-07T19:21:04.748Z,72.86
2018-08-07T19:23:34.125Z,72.55
2018-08-07T19:26:03.350Z,73.95
2018-08-07T19:28:32.475Z,72.75
2018-08-07T19:31:02.297Z,73.22
2018-08-07T19:33:31.568Z,73.59
2018-08-07T19:36:00.688Z,72.98
2018-08-07T19:38:30.644Z,71.97
2018-08-07T19:40:59.743Z,71.97
2018-08-07T19:43:29.007Z,73.41
2018-08-07T19:46:04.929Z,74.31
2018-08-07T19:48:34.331Z,75.05
2018-08-07T19:51:04.929Z,75.92
2018-08-07T19:53:34.037Z,76.16
2018-08-07T19:56:03.369Z,75.56
2018-08-07T19:58:33.991Z,76.29
2018-08-07T20:01:03.237Z,77.06
2018-08-07T20:03:32.507Z,78.32
2018-08-07T20:06:03.129Z,77.65
2018-08-07T20:08:33.577Z,78.94
2018-08-07T20:11:02.796Z,77.44
2018-08-07T20:13:32.383Z,79.35
2018-08-07T20:16:01.572Z,80.27
2018-08-07T20:18:30.663Z,79.66
2018-08-07T20:20:59.738Z,77.17
2018-08-07T20:23:29.043Z,76.97
2018-08-07T20:25:58.512Z,77.02
2018-08-07T20:28:28.360Z,76.00
2018-08-07T20:30:57.536Z,73.92
2018-08-07T20:33:27.013Z,75.35
2018-08-07T20:35:56.026Z,75.41
2018-08-07T20:38:25.097Z,74.62
2018-08-07T20:40:54.362Z,74.12
2018-08-07T20:43:23.696Z,75.09
2018-08-07T20:45:52.841Z,75.71
2018-08-07T20:57:38.732Z,76.91
2018-08-07T21:00:09.638Z,77.23
2018-08-07T21:02:39.253Z,75.47
2018-08-07T21:05:08.325Z,75.88
2018-08-07T21:07:38.660Z,76.12
2018-08-07T21:10:10.617Z,78.12
2018-08-07T21:12:42.102Z,79.13
2018-08-07T21:15:12.172Z,77.86
2018-08-07T21:17:41.730Z,77.02
2018-08-07T21:20:14.788Z,76.42
2018-08-07T21:22:44.913Z,77.74
2018-08-07T21:25:16.041Z,77.73
2018-08-07T21:27:45.817Z,79.40
2018-08-07T21:30:22.459Z,81.81
2018-08-07T21:32:51.448Z,82.62
2018-08-07T21:35:22.383Z,83.49
2018-08-07T21:37:51.558Z,79.10
2018-08-07T21:40:30.343Z,79.80
2018-08-07T21:43:02.663Z,76.63
2018-08-07T21:45:35.235Z,74.07
2018-08-07T21:48:06.666Z,73.18
2018-08-07T21:50:36.093Z,75.94
2018-08-07T21:53:09.595Z,78.60
2018-08-07T21:55:40.491Z,81.14
2018-08-07T21:58:09.685Z,83.42
2018-08-07T22:00:44.308Z,84.90
2018-08-07T22:03:13.590Z,85.46
2018-08-07T22:05:43.000Z,85.37
2018-08-07T22:08:13.735Z,85.21
2018-08-07T22:10:43.325Z,86.10
2018-08-07T22:13:12.641Z,87.29
2018-08-07T22:15:42.280Z,89.00
2018-08-07T22:18:12.632Z,90.55
2018-08-07T22:21:24.627Z,88.69
2018-08-07T22:23:57.394Z,85.42
2018-08-07T22:26:28.110Z,85.33
2018-08-07T22:29:00.987Z,87.75
2018-08-07T22:31:30.292Z,89.52
2018-08-07T22:33:59.456Z,91.09
2018-08-07T22:36:28.472Z,89.60
2018-08-07T22:38:57.479Z,89.47
2018-08-07T22:41:26.562Z,89.93
2018-08-07T22:43:55.685Z,89.95
2018-08-07T22:46:41.773Z,86.09
2018-08-07T22:49:13.117Z,81.13
2018-08-07T22:51:42.415Z,81.74
2018-08-07T22:54:11.507Z,85.41
2018-08-07T22:56:41.141Z,86.91
2018-08-07T22:59:10.346Z,88.74
2018-08-07T23:01:40.025Z,89.96
2018-08-07T23:04:09.929Z,90.00
2018-08-07T23:06:39.598Z,88.37
2018-08-07T23:12:58.484Z,86.47
2018-08-07T23:15:27.818Z,86.14
2018-08-07T23:17:58.118Z,85.76
2018-08-07T23:20:27.802Z,88.17
2018-08-07T23:22:58.568Z,87.29
2018-08-07T23:25:28.111Z,86.95
2018-08-07T23:27:57.292Z,87.29
2018-08-07T23:30:26.860Z,88.01
2018-08-07T23:32:56.033Z,87.95
2018-08-07T23:35:25.175Z,87.48
2018-08-07T23:37:54.296Z,88.85
2018-08-07T23:43:42.069Z,91.89
2018-08-07T23:49:30.939Z,90.62
2018-08-07T23:52:00.147Z,89.77
2018-08-07T23:54:29.405Z,90.70
2018-08-07T23:56:58.763Z,91.55
2018-08-07T23:59:27.980Z,90.15
